sensor_id;sensor_type;location;lat;lon;timestamp;pressure;altitude;pressure_sealevel;temperature;humidity
55675;BME280;41562;44.330;23.802;2024-03-08T00:02:01;100725.91;;;4.79;100.00
55675;BME280;41562;44.330;23.802;2024-03-08T00:04:29;100722.31;;;4.74;100.00
55675;BME280;41562;44.330;23.802;2024-03-08T00:06:56;100723.78;;;4.88;100.00
55675;BME280;41562;44.330;23.802;2024-03-08T00:09:23;100728.91;;;5.01;100.00
55675;BME280;41562;44.330;23.802;2024-03-08T00:11:51;100727.16;;;4.95;100.00
55675;BME280;41562;44.330;23.802;2024-03-08T00:14:18;100728.19;;;4.94;100.00
55675;BME280;41562;44.330;23.802;2024-03-08T00:16:45;100726.47;;;5.00;100.00
55675;BME280;41562;44.330;23.802;2024-03-08T00:19:13;100725.25;;;4.84;100.00
55675;BME280;41562;44.330;23.802;2024-03-08T00:21:40;100731.00;;;4.99;100.00
55675;BME280;41562;44.330;23.802;2024-03-08T00:24:07;100729.31;;;4.87;100.00
55675;BME280;41562;44.330;23.802;2024-03-08T00:26:35;100719.22;;;4.77;100.00
55675;BME280;41562;44.330;23.802;2024-03-08T00:29:02;100720.56;;;4.86;100.00
55675;BME280;41562;44.330;23.802;2024-03-08T00:31:29;100717.72;;;4.81;100.00
55675;BME280;41562;44.330;23.802;2024-03-08T00:33:57;100726.81;;;4.73;100.00
55675;BME280;41562;44.330;23.802;2024-03-08T00:36:25;100721.13;;;4.70;100.00
55675;BME280;41562;44.330;23.802;2024-03-08T00:38:52;100733.19;;;4.48;100.00
55675;BME280;41562;44.330;23.802;2024-03-08T00:41:20;100722.00;;;4.64;100.00
55675;BME280;41562;44.330;23.802;2024-03-08T00:43:47;100720.84;;;4.60;100.00
55675;BME280;41562;44.330;23.802;2024-03-08T00:46:14;100719.13;;;4.65;100.00
55675;BME280;41562;44.330;23.802;2024-03-08T00:48:44;100721.78;;;4.47;100.00
55675;BME280;41562;44.330;23.802;2024-03-08T00:51:11;100729.53;;;4.67;100.00
55675;BME280;41562;44.330;23.802;2024-03-08T00:53:39;100712.69;;;4.79;100.00
55675;BME280;41562;44.330;23.802;2024-03-08T00:56:07;100719.13;;;4.65;100.00
55675;BME280;41562;44.330;23.802;2024-03-08T00:58:36;100726.41;;;4.70;100.00
55675;BME280;41562;44.330;23.802;2024-03-08T01:01:04;100714.94;;;4.76;100.00
55675;BME280;41562;44.330;23.802;2024-03-08T01:03:31;100722.75;;;4.89;100.00
55675;BME280;41562;44.330;23.802;2024-03-08T01:05:58;100718.19;;;4.78;100.00
55675;BME280;41562;44.330;23.802;2024-03-08T01:08:26;100718.63;;;4.75;100.00
55675;BME280;41562;44.330;23.802;2024-03-08T01:10:54;100724.78;;;4.69;100.00
55675;BME280;41562;44.330;23.802;2024-03-08T01:13:21;100719.63;;;4.56;100.00
55675;BME280;41562;44.330;23.802;2024-03-08T01:15:48;100727.56;;;4.37;100.00
55675;BME280;41562;44.330;23.802;2024-03-08T01:18:15;100724.56;;;4.52;100.00
55675;BME280;41562;44.330;23.802;2024-03-08T01:20:43;100723.84;;;4.63;100.00
55675;BME280;41562;44.330;23.802;2024-03-08T01:23:10;100726.31;;;4.40;100.00
55675;BME280;41562;44.330;23.802;2024-03-08T01:25:37;100729.06;;;4.52;100.00
55675;BME280;41562;44.330;23.802;2024-03-08T01:28:05;100727.41;;;4.32;100.00
55675;BME280;41562;44.330;23.802;2024-03-08T01:30:32;100718.41;;;4.58;100.00
55675;BME280;41562;44.330;23.802;2024-03-08T01:33:00;100728.28;;;4.26;100.00
55675;BME280;41562;44.330;23.802;2024-03-08T01:35:28;100720.78;;;4.23;100.00
55675;BME280;41562;44.330;23.802;2024-03-08T01:37:55;100719.47;;;4.32;100.00
55675;BME280;41562;44.330;23.802;2024-03-08T01:40:22;100723.47;;;4.41;100.00
55675;BME280;41562;44.330;23.802;2024-03-08T01:42:50;100725.38;;;4.34;100.00
55675;BME280;41562;44.330;23.802;2024-03-08T01:45:17;100723.59;;;4.28;100.00
55675;BME280;41562;44.330;23.802;2024-03-08T01:47:45;100724.66;;;4.21;100.00
55675;BME280;41562;44.330;23.802;2024-03-08T01:50:12;100724.63;;;4.45;100.00
55675;BME280;41562;44.330;23.802;2024-03-08T01:52:39;100726.94;;;4.60;100.00
55675;BME280;41562;44.330;23.802;2024-03-08T01:55:07;100726.88;;;4.24;100.00
55675;BME280;41562;44.330;23.802;2024-03-08T01:57:35;100731.75;;;4.27;100.00
55675;BME280;41562;44.330;23.802;2024-03-08T02:00:02;100727.13;;;4.40;100.00
55675;BME280;41562;44.330;23.802;2024-03-08T02:02:32;100717.84;;;4.31;100.00
55675;BME280;41562;44.330;23.802;2024-03-08T02:05:00;100718.94;;;4.24;100.00
55675;BME280;41562;44.330;23.802;2024-03-08T02:07:28;100724.00;;;4.25;100.00
55675;BME280;41562;44.330;23.802;2024-03-08T02:09:55;100718.44;;;4.33;100.00
55675;BME280;41562;44.330;23.802;2024-03-08T02:12:22;100722.72;;;4.34;100.00
55675;BME280;41562;44.330;23.802;2024-03-08T02:14:50;100719.03;;;4.35;100.00
55675;BME280;41562;44.330;23.802;2024-03-08T02:17:17;100720.72;;;4.30;100.00
55675;BME280;41562;44.330;23.802;2024-03-08T02:19:44;100716.97;;;4.37;100.00
55675;BME280;41562;44.330;23.802;2024-03-08T02:22:12;100713.22;;;4.27;100.00
55675;BME280;41562;44.330;23.802;2024-03-08T02:24:39;100721.47;;;4.12;100.00
55675;BME280;41562;44.330;23.802;2024-03-08T02:27:06;100717.75;;;3.95;100.00
55675;BME280;41562;44.330;23.802;2024-03-08T02:29:34;100724.78;;;4.08;100.00
55675;BME280;41562;44.330;23.802;2024-03-08T02:32:02;100723.69;;;4.15;100.00
55675;BME280;41562;44.330;23.802;2024-03-08T02:34:31;100724.88;;;4.19;100.00
55675;BME280;41562;44.330;23.802;2024-03-08T02:36:58;100719.25;;;4.34;100.00
55675;BME280;41562;44.330;23.802;2024-03-08T02:39:25;100724.56;;;4.52;100.00
55675;BME280;41562;44.330;23.802;2024-03-08T02:41:53;100729.13;;;4.45;100.00
55675;BME280;41562;44.330;23.802;2024-03-08T02:44:20;100730.19;;;4.37;100.00
55675;BME280;41562;44.330;23.802;2024-03-08T02:46:47;100728.53;;;4.43;100.00
55675;BME280;41562;44.330;23.802;2024-03-08T02:49:15;100729.31;;;4.25;100.00
55675;BME280;41562;44.330;23.802;2024-03-08T02:51:42;100730.81;;;4.39;100.00
55675;BME280;41562;44.330;23.802;2024-03-08T02:54:09;100741.41;;;4.39;100.00
55675;BME280;41562;44.330;23.802;2024-03-08T02:56:37;100737.63;;;4.29;100.00
55675;BME280;41562;44.330;23.802;2024-03-08T02:59:04;100741.53;;;4.44;100.00
55675;BME280;41562;44.330;23.802;2024-03-08T03:01:31;100724.31;;;4.17;100.00
55675;BME280;41562;44.330;23.802;2024-03-08T03:04:00;100734.69;;;4.37;100.00
55675;BME280;41562;44.330;23.802;2024-03-08T03:06:27;100727.41;;;4.08;100.00
55675;BME280;41562;44.330;23.802;2024-03-08T03:08:55;100731.38;;;4.23;100.00
55675;BME280;41562;44.330;23.802;2024-03-08T03:11:23;100737.66;;;4.47;100.00
55675;BME280;41562;44.330;23.802;2024-03-08T03:13:50;100741.69;;;4.50;100.00
55675;BME280;41562;44.330;23.802;2024-03-08T03:16:18;100739.25;;;4.30;100.00
55675;BME280;41562;44.330;23.802;2024-03-08T03:18:46;100741.00;;;4.11;100.00
55675;BME280;41562;44.330;23.802;2024-03-08T03:21:14;100739.31;;;4.23;100.00
55675;BME280;41562;44.330;23.802;2024-03-08T03:23:41;100747.09;;;4.36;100.00
55675;BME280;41562;44.330;23.802;2024-03-08T03:26:09;100750.22;;;4.33;100.00
55675;BME280;41562;44.330;23.802;2024-03-08T03:28:37;100748.44;;;4.27;100.00
55675;BME280;41562;44.330;23.802;2024-03-08T03:31:07;100745.66;;;4.40;100.00
55675;BME280;41562;44.330;23.802;2024-03-08T03:33:36;100750.47;;;4.25;100.00
55675;BME280;41562;44.330;23.802;2024-03-08T03:36:04;100745.06;;;4.38;100.00
55675;BME280;41562;44.330;23.802;2024-03-08T03:38:32;100744.66;;;4.41;100.00
55675;BME280;41562;44.330;23.802;2024-03-08T03:40:59;100746.63;;;4.46;100.00
55675;BME280;41562;44.330;23.802;2024-03-08T03:43:26;100749.94;;;4.41;100.00
55675;BME280;41562;44.330;23.802;2024-03-08T03:45:54;100744.84;;;4.40;100.00
55675;BME280;41562;44.330;23.802;2024-03-08T03:48:21;100752.66;;;4.35;100.00
55675;BME280;41562;44.330;23.802;2024-03-08T03:50:48;100745.50;;;4.35;100.00
55675;BME280;41562;44.330;23.802;2024-03-08T03:53:16;100752.13;;;4.44;100.00
55675;BME280;41562;44.330;23.802;2024-03-08T03:55:43;100758.44;;;4.43;100.00
55675;BME280;41562;44.330;23.802;2024-03-08T03:58:10;100756.53;;;4.32;100.00
55675;BME280;41562;44.330;23.802;2024-03-08T04:00:38;100759.22;;;4.51;100.00
55675;BME280;41562;44.330;23.802;2024-03-08T04:03:06;100758.47;;;4.62;100.00
55675;BME280;41562;44.330;23.802;2024-03-08T04:05:33;100758.72;;;4.60;100.00
55675;BME280;41562;44.330;23.802;2024-03-08T04:08:01;100752.75;;;4.47;100.00
55675;BME280;41562;44.330;23.802;2024-03-08T04:10:28;100755.38;;;4.47;100.00
55675;BME280;41562;44.330;23.802;2024-03-08T04:12:55;100758.09;;;4.40;100.00
55675;BME280;41562;44.330;23.802;2024-03-08T04:15:22;100753.63;;;4.40;100.00
55675;BME280;41562;44.330;23.802;2024-03-08T04:17:50;100749.63;;;4.50;100.00
55675;BME280;41562;44.330;23.802;2024-03-08T04:20:17;100753.78;;;4.64;100.00
55675;BME280;41562;44.330;23.802;2024-03-08T04:22:45;100750.13;;;4.65;100.00
55675;BME280;41562;44.330;23.802;2024-03-08T04:25:12;100757.69;;;4.61;100.00
55675;BME280;41562;44.330;23.802;2024-03-08T04:27:39;100762.06;;;4.74;100.00
55675;BME280;41562;44.330;23.802;2024-03-08T04:30:07;100758.66;;;4.85;100.00
55675;BME280;41562;44.330;23.802;2024-03-08T04:32:35;100763.81;;;4.80;100.00
55675;BME280;41562;44.330;23.802;2024-03-08T04:35:03;100775.72;;;4.71;100.00
55675;BME280;41562;44.330;23.802;2024-03-08T04:37:31;100779.31;;;4.58;100.00
55675;BME280;41562;44.330;23.802;2024-03-08T04:39:59;100781.06;;;6.85;100.00
55675;BME280;41562;44.330;23.802;2024-03-08T04:42:30;100783.97;;;7.35;100.00
55675;BME280;41562;44.330;23.802;2024-03-08T04:44:58;100791.19;;;9.62;100.00
55675;BME280;41562;44.330;23.802;2024-03-08T04:47:25;100784.38;;;8.17;100.00
55675;BME280;41562;44.330;23.802;2024-03-08T04:49:53;100777.19;;;9.06;100.00
55675;BME280;41562;44.330;23.802;2024-03-08T04:52:20;100783.41;;;10.41;100.00
55675;BME280;41562;44.330;23.802;2024-03-08T04:54:48;100795.00;;;10.94;93.53
55675;BME280;41562;44.330;23.802;2024-03-08T04:57:15;100791.22;;;10.47;100.00
55675;BME280;41562;44.330;23.802;2024-03-08T04:59:43;100803.06;;;9.98;94.38
55675;BME280;41562;44.330;23.802;2024-03-08T05:02:10;100801.03;;;9.83;99.93
55675;BME280;41562;44.330;23.802;2024-03-08T05:04:38;100794.78;;;10.26;95.78
55675;BME280;41562;44.330;23.802;2024-03-08T05:07:05;100801.84;;;9.35;97.36
55675;BME280;41562;44.330;23.802;2024-03-08T05:09:33;100797.06;;;7.25;100.00
55675;BME280;41562;44.330;23.802;2024-03-08T05:12:00;100794.16;;;5.69;100.00
55675;BME280;41562;44.330;23.802;2024-03-08T05:14:27;100803.19;;;5.31;100.00
55675;BME280;41562;44.330;23.802;2024-03-08T05:16:55;100807.88;;;7.47;100.00
55675;BME280;41562;44.330;23.802;2024-03-08T05:19:22;100811.03;;;7.32;100.00
55675;BME280;41562;44.330;23.802;2024-03-08T05:21:50;100821.44;;;9.02;98.58
55675;BME280;41562;44.330;23.802;2024-03-08T05:24:17;100812.47;;;6.41;100.00
55675;BME280;41562;44.330;23.802;2024-03-08T05:26:46;100814.19;;;5.64;100.00
55675;BME280;41562;44.330;23.802;2024-03-08T05:29:14;100817.78;;;5.04;100.00
55675;BME280;41562;44.330;23.802;2024-03-08T05:31:49;100827.13;;;4.63;100.00
55675;BME280;41562;44.330;23.802;2024-03-08T05:34:17;100824.53;;;4.57;100.00
55675;BME280;41562;44.330;23.802;2024-03-08T05:36:45;100821.88;;;4.57;100.00
55675;BME280;41562;44.330;23.802;2024-03-08T05:39:13;100833.25;;;4.64;100.00
55675;BME280;41562;44.330;23.802;2024-03-08T05:41:41;100830.06;;;4.55;100.00
55675;BME280;41562;44.330;23.802;2024-03-08T05:44:10;100839.13;;;4.66;100.00
55675;BME280;41562;44.330;23.802;2024-03-08T05:46:37;100842.66;;;4.60;100.00
55675;BME280;41562;44.330;23.802;2024-03-08T05:49:06;100843.38;;;4.49;100.00
55675;BME280;41562;44.330;23.802;2024-03-08T05:51:36;100844.44;;;4.66;100.00
55675;BME280;41562;44.330;23.802;2024-03-08T05:54:05;100853.03;;;4.86;100.00
55675;BME280;41562;44.330;23.802;2024-03-08T05:56:34;100856.25;;;4.88;100.00
55675;BME280;41562;44.330;23.802;2024-03-08T05:59:02;100850.03;;;4.76;100.00
55675;BME280;41562;44.330;23.802;2024-03-08T06:01:30;100861.66;;;4.75;100.00
55675;BME280;41562;44.330;23.802;2024-03-08T06:03:57;100860.28;;;4.72;100.00
55675;BME280;41562;44.330;23.802;2024-03-08T06:06:24;100869.34;;;4.83;100.00
55675;BME280;41562;44.330;23.802;2024-03-08T06:08:52;100866.84;;;4.63;100.00
55675;BME280;41562;44.330;23.802;2024-03-08T06:11:20;100874.22;;;4.86;100.00
55675;BME280;41562;44.330;23.802;2024-03-08T06:13:48;100868.03;;;4.92;100.00
55675;BME280;41562;44.330;23.802;2024-03-08T06:16:16;100870.91;;;4.66;100.00
55675;BME280;41562;44.330;23.802;2024-03-08T06:18:44;100876.06;;;4.61;100.00
55675;BME280;41562;44.330;23.802;2024-03-08T06:21:11;100875.09;;;4.80;100.00
55675;BME280;41562;44.330;23.802;2024-03-08T06:23:40;100875.88;;;4.56;100.00
55675;BME280;41562;44.330;23.802;2024-03-08T06:26:08;100877.94;;;4.78;100.00
55675;BME280;41562;44.330;23.802;2024-03-08T06:28:35;100884.09;;;4.97;100.00
55675;BME280;41562;44.330;23.802;2024-03-08T06:31:02;100879.53;;;4.61;100.00
55675;BME280;41562;44.330;23.802;2024-03-08T06:33:30;100882.84;;;4.50;100.00
55675;BME280;41562;44.330;23.802;2024-03-08T06:35:57;100888.31;;;5.05;100.00
55675;BME280;41562;44.330;23.802;2024-03-08T06:38:25;100889.41;;;4.97;100.00
55675;BME280;41562;44.330;23.802;2024-03-08T06:40:53;100890.25;;;4.91;100.00
55675;BME280;41562;44.330;23.802;2024-03-08T06:43:20;100886.25;;;4.57;100.00
55675;BME280;41562;44.330;23.802;2024-03-08T06:45:47;100885.03;;;4.60;100.00
55675;BME280;41562;44.330;23.802;2024-03-08T06:48:18;100886.00;;;4.90;100.00
55675;BME280;41562;44.330;23.802;2024-03-08T06:50:46;100888.94;;;5.00;100.00
55675;BME280;41562;44.330;23.802;2024-03-08T06:53:14;100882.75;;;5.06;100.00
55675;BME280;41562;44.330;23.802;2024-03-08T06:55:45;100891.28;;;4.90;100.00
55675;BME280;41562;44.330;23.802;2024-03-08T06:58:12;100888.00;;;4.70;100.00
55675;BME280;41562;44.330;23.802;2024-03-08T07:00:39;100894.16;;;4.89;100.00
55675;BME280;41562;44.330;23.802;2024-03-08T07:03:09;100889.25;;;4.92;100.00
55675;BME280;41562;44.330;23.802;2024-03-08T07:05:37;100897.34;;;4.97;100.00
55675;BME280;41562;44.330;23.802;2024-03-08T07:08:04;100902.97;;;4.58;100.00
55675;BME280;41562;44.330;23.802;2024-03-08T07:10:32;100896.97;;;4.37;100.00
55675;BME280;41562;44.330;23.802;2024-03-08T07:12:59;100895.22;;;4.56;100.00
55675;BME280;41562;44.330;23.802;2024-03-08T07:15:26;100897.06;;;4.56;100.00
55675;BME280;41562;44.330;23.802;2024-03-08T07:17:54;100896.81;;;4.64;100.00
55675;BME280;41562;44.330;23.802;2024-03-08T07:20:21;100903.31;;;4.68;100.00
55675;BME280;41562;44.330;23.802;2024-03-08T07:22:48;100902.97;;;4.58;100.00
55675;BME280;41562;44.330;23.802;2024-03-08T07:25:16;100901.06;;;4.90;100.00
55675;BME280;41562;44.330;23.802;2024-03-08T07:27:44;100904.75;;;4.64;100.00
55675;BME280;41562;44.330;23.802;2024-03-08T07:30:11;100898.16;;;4.73;100.00
55675;BME280;41562;44.330;23.802;2024-03-08T07:32:39;100895.00;;;4.82;100.00
55675;BME280;41562;44.330;23.802;2024-03-08T07:35:06;100898.41;;;5.14;100.00
55675;BME280;41562;44.330;23.802;2024-03-08T07:37:34;100899.69;;;4.56;100.00
55675;BME280;41562;44.330;23.802;2024-03-08T07:40:01;100892.25;;;4.71;100.00
55675;BME280;41562;44.330;23.802;2024-03-08T07:42:28;100889.06;;;4.87;100.00
55675;BME280;41562;44.330;23.802;2024-03-08T07:44:56;100901.03;;;5.14;100.00
55675;BME280;41562;44.330;23.802;2024-03-08T07:47:23;100904.63;;;5.02;100.00
55675;BME280;41562;44.330;23.802;2024-03-08T07:49:51;100894.75;;;4.91;100.00
55675;BME280;41562;44.330;23.802;2024-03-08T07:52:19;100898.38;;;4.96;100.00
55675;BME280;41562;44.330;23.802;2024-03-08T07:54:46;100897.41;;;4.66;100.00
55675;BME280;41562;44.330;23.802;2024-03-08T07:57:13;100902.66;;;4.97;100.00
55675;BME280;41562;44.330;23.802;2024-03-08T07:59:41;100911.50;;;5.09;100.00
55675;BME280;41562;44.330;23.802;2024-03-08T08:02:09;100898.84;;;5.11;100.00
55675;BME280;41562;44.330;23.802;2024-03-08T08:04:36;100908.03;;;5.82;100.00
55675;BME280;41562;44.330;23.802;2024-03-08T08:07:03;100904.63;;;5.81;100.00
55675;BME280;41562;44.330;23.802;2024-03-08T08:09:31;100914.41;;;5.81;100.00
55675;BME280;41562;44.330;23.802;2024-03-08T08:11:58;100916.38;;;5.85;100.00
55675;BME280;41562;44.330;23.802;2024-03-08T08:14:25;100913.72;;;6.03;100.00
55675;BME280;41562;44.330;23.802;2024-03-08T08:16:52;100916.97;;;5.51;100.00
55675;BME280;41562;44.330;23.802;2024-03-08T08:19:20;100910.66;;;5.88;100.00
55675;BME280;41562;44.330;23.802;2024-03-08T08:21:47;100921.41;;;5.75;100.00
55675;BME280;41562;44.330;23.802;2024-03-08T08:24:14;100906.91;;;6.26;100.00
55675;BME280;41562;44.330;23.802;2024-03-08T08:26:42;100919.88;;;5.68;100.00
55675;BME280;41562;44.330;23.802;2024-03-08T08:29:10;100915.31;;;5.75;100.00
55675;BME280;41562;44.330;23.802;2024-03-08T08:31:37;100910.06;;;5.68;100.00
55675;BME280;41562;44.330;23.802;2024-03-08T08:34:05;100907.56;;;5.37;100.00
55675;BME280;41562;44.330;23.802;2024-03-08T08:36:32;100917.56;;;5.35;100.00
55675;BME280;41562;44.330;23.802;2024-03-08T08:38:59;100909.78;;;4.97;100.00
55675;BME280;41562;44.330;23.802;2024-03-08T08:41:26;100900.19;;;4.96;100.00
55675;BME280;41562;44.330;23.802;2024-03-08T08:43:54;100897.66;;;5.25;100.00
55675;BME280;41562;44.330;23.802;2024-03-08T08:46:36;100907.25;;;5.81;100.00
55675;BME280;41562;44.330;23.802;2024-03-08T08:49:08;100908.16;;;5.75;100.00
55675;BME280;41562;44.330;23.802;2024-03-08T08:51:35;100907.41;;;5.86;100.00
55675;BME280;41562;44.330;23.802;2024-03-08T08:54:03;100906.28;;;6.12;100.00
55675;BME280;41562;44.330;23.802;2024-03-08T08:56:30;100913.22;;;5.58;100.00
55675;BME280;41562;44.330;23.802;2024-03-08T08:58:57;100906.09;;;5.59;100.00
55675;BME280;41562;44.330;23.802;2024-03-08T09:01:25;100895.06;;;6.52;100.00
55675;BME280;41562;44.330;23.802;2024-03-08T09:03:52;100906.34;;;6.35;100.00
55675;BME280;41562;44.330;23.802;2024-03-08T09:06:19;100904.97;;;5.85;100.00
55675;BME280;41562;44.330;23.802;2024-03-08T09:08:47;100904.75;;;5.86;100.00
55675;BME280;41562;44.330;23.802;2024-03-08T09:11:14;100905.34;;;5.52;100.00
55675;BME280;41562;44.330;23.802;2024-03-08T09:13:44;100904.59;;;5.45;100.00
55675;BME280;41562;44.330;23.802;2024-03-08T09:16:11;100903.78;;;5.44;100.00
55675;BME280;41562;44.330;23.802;2024-03-08T09:18:39;100896.94;;;5.18;100.00
55675;BME280;41562;44.330;23.802;2024-03-08T09:21:06;100895.59;;;5.09;100.00
55675;BME280;41562;44.330;23.802;2024-03-08T09:23:34;100891.78;;;5.23;100.00
55675;BME280;41562;44.330;23.802;2024-03-08T09:26:01;100897.03;;;5.30;100.00
55675;BME280;41562;44.330;23.802;2024-03-08T09:28:30;100893.56;;;5.48;100.00
55675;BME280;41562;44.330;23.802;2024-03-08T09:30:57;100900.47;;;5.85;100.00
55675;BME280;41562;44.330;23.802;2024-03-08T09:33:26;100901.06;;;6.05;100.00
55675;BME280;41562;44.330;23.802;2024-03-08T09:35:54;100899.81;;;5.90;100.00
55675;BME280;41562;44.330;23.802;2024-03-08T09:38:21;100901.97;;;5.99;100.00
55675;BME280;41562;44.330;23.802;2024-03-08T09:40:48;100899.13;;;5.94;100.00
55675;BME280;41562;44.330;23.802;2024-03-08T09:43:16;100898.31;;;5.76;100.00
55675;BME280;41562;44.330;23.802;2024-03-08T09:45:45;100910.78;;;5.57;100.00
55675;BME280;41562;44.330;23.802;2024-03-08T09:48:16;100908.44;;;5.67;100.00
55675;BME280;41562;44.330;23.802;2024-03-08T09:50:44;100901.00;;;5.57;100.00
55675;BME280;41562;44.330;23.802;2024-03-08T09:53:12;100897.03;;;5.66;100.00
55675;BME280;41562;44.330;23.802;2024-03-08T09:55:39;100904.56;;;5.88;100.00
55675;BME280;41562;44.330;23.802;2024-03-08T09:58:08;100900.72;;;5.65;100.00
55675;BME280;41562;44.330;23.802;2024-03-08T10:00:36;100900.13;;;5.45;100.00
55675;BME280;41562;44.330;23.802;2024-03-08T10:03:03;100900.56;;;5.42;100.00
55675;BME280;41562;44.330;23.802;2024-03-08T10:05:31;100907.56;;;5.37;100.00
55675;BME280;41562;44.330;23.802;2024-03-08T10:07:58;100905.41;;;5.45;100.00
55675;BME280;41562;44.330;23.802;2024-03-08T10:10:25;100903.84;;;5.38;100.00
55675;BME280;41562;44.330;23.802;2024-03-08T10:12:53;100899.44;;;5.32;100.00
55675;BME280;41562;44.330;23.802;2024-03-08T10:15:20;100916.81;;;5.82;100.00
55675;BME280;41562;44.330;23.802;2024-03-08T10:17:47;100916.25;;;5.62;100.00
55675;BME280;41562;44.330;23.802;2024-03-08T10:20:18;100899.66;;;5.85;100.00
55675;BME280;41562;44.330;23.802;2024-03-08T10:22:46;100907.09;;;5.94;100.00
55675;BME280;41562;44.330;23.802;2024-03-08T10:25:33;100901.22;;;5.92;100.00
55675;BME280;41562;44.330;23.802;2024-03-08T10:28:03;100897.47;;;6.00;100.00
55675;BME280;41562;44.330;23.802;2024-03-08T10:30:30;100903.00;;;5.62;100.00
55675;BME280;41562;44.330;23.802;2024-03-08T10:32:58;100891.50;;;5.50;100.00
55675;BME280;41562;44.330;23.802;2024-03-08T10:35:25;100885.88;;;5.76;100.00
55675;BME280;41562;44.330;23.802;2024-03-08T10:37:56;100891.78;;;5.60;100.00
55675;BME280;41562;44.330;23.802;2024-03-08T10:40:25;100884.72;;;5.54;100.00
55675;BME280;41562;44.330;23.802;2024-03-08T10:42:55;100875.63;;;5.80;100.00
55675;BME280;41562;44.330;23.802;2024-03-08T10:50:35;100877.09;;;5.76;100.00
55675;BME280;41562;44.330;23.802;2024-03-08T10:53:06;100874.22;;;5.95;100.00
55675;BME280;41562;44.330;23.802;2024-03-08T10:55:36;100868.06;;;6.78;100.00
55675;BME280;41562;44.330;23.802;2024-03-08T10:58:06;100869.88;;;6.42;100.00
55675;BME280;41562;44.330;23.802;2024-03-08T11:00:34;100875.25;;;5.94;100.00
55675;BME280;41562;44.330;23.802;2024-03-08T11:03:03;100864.50;;;5.89;100.00
55675;BME280;41562;44.330;23.802;2024-03-08T11:05:40;100863.44;;;6.09;100.00
55675;BME280;41562;44.330;23.802;2024-03-08T11:10:53;100868.50;;;8.58;98.29
55675;BME280;41562;44.330;23.802;2024-03-08T11:13:35;100853.84;;;7.31;100.00
55675;BME280;41562;44.330;23.802;2024-03-08T11:16:07;100853.16;;;6.65;100.00
55675;BME280;41562;44.330;23.802;2024-03-08T11:18:36;100854.38;;;6.28;100.00
55675;BME280;41562;44.330;23.802;2024-03-08T11:21:04;100843.38;;;6.13;100.00
55675;BME280;41562;44.330;23.802;2024-03-08T11:23:32;100839.38;;;6.33;100.00
55675;BME280;41562;44.330;23.802;2024-03-08T11:25:59;100841.25;;;6.44;100.00
55675;BME280;41562;44.330;23.802;2024-03-08T11:28:27;100837.91;;;6.49;100.00
55675;BME280;41562;44.330;23.802;2024-03-08T11:33:27;100829.34;;;6.47;100.00
55675;BME280;41562;44.330;23.802;2024-03-08T11:36:03;100832.25;;;6.57;100.00
55675;BME280;41562;44.330;23.802;2024-03-08T11:38:45;100835.69;;;6.34;100.00
55675;BME280;41562;44.330;23.802;2024-03-08T11:41:13;100826.06;;;6.22;100.00
55675;BME280;41562;44.330;23.802;2024-03-08T11:43:44;100824.63;;;6.61;100.00
55675;BME280;41562;44.330;23.802;2024-03-08T11:46:12;100823.13;;;6.53;100.00
55675;BME280;41562;44.330;23.802;2024-03-08T11:48:41;100822.06;;;6.31;100.00
55675;BME280;41562;44.330;23.802;2024-03-08T11:51:12;100819.00;;;6.04;100.00
55675;BME280;41562;44.330;23.802;2024-03-08T11:53:40;100816.56;;;6.02;100.00
55675;BME280;41562;44.330;23.802;2024-03-08T11:56:11;100814.28;;;6.18;100.00
55675;BME280;41562;44.330;23.802;2024-03-08T11:58:39;100815.25;;;6.35;100.00
55675;BME280;41562;44.330;23.802;2024-03-08T12:01:09;100814.22;;;6.47;100.00
55675;BME280;41562;44.330;23.802;2024-03-08T12:03:36;100812.81;;;6.45;100.00
55675;BME280;41562;44.330;23.802;2024-03-08T12:06:04;100813.41;;;6.59;100.00
55675;BME280;41562;44.330;23.802;2024-03-08T12:08:31;100813.38;;;6.24;100.00
55675;BME280;41562;44.330;23.802;2024-03-08T12:10:58;100818.22;;;6.27;100.00
55675;BME280;41562;44.330;23.802;2024-03-08T12:13:30;100815.72;;;6.32;100.00
55675;BME280;41562;44.330;23.802;2024-03-08T12:15:59;100813.63;;;6.34;100.00
55675;BME280;41562;44.330;23.802;2024-03-08T12:18:27;100811.44;;;6.42;100.00
55675;BME280;41562;44.330;23.802;2024-03-08T12:21:11;100811.63;;;6.18;100.00
55675;BME280;41562;44.330;23.802;2024-03-08T12:23:38;100811.97;;;6.10;100.00
55675;BME280;41562;44.330;23.802;2024-03-08T12:26:13;100808.81;;;6.54;100.00
55675;BME280;41562;44.330;23.802;2024-03-08T12:28:42;100814.44;;;6.46;100.00
55675;BME280;41562;44.330;23.802;2024-03-08T12:31:16;100811.13;;;6.51;100.00
55675;BME280;41562;44.330;23.802;2024-03-08T12:33:55;100807.38;;;6.28;100.00
55675;BME280;41562;44.330;23.802;2024-03-08T12:36:24;100809.94;;;6.58;100.00
55675;BME280;41562;44.330;23.802;2024-03-08T12:38:53;100801.56;;;6.20;100.00
55675;BME280;41562;44.330;23.802;2024-03-08T12:41:21;100800.91;;;6.13;100.00
55675;BME280;41562;44.330;23.802;2024-03-08T12:43:48;100807.38;;;6.40;100.00
55675;BME280;41562;44.330;23.802;2024-03-08T12:46:22;100800.94;;;6.59;100.00
55675;BME280;41562;44.330;23.802;2024-03-08T12:48:49;100805.00;;;6.50;100.00
55675;BME280;41562;44.330;23.802;2024-03-08T12:51:17;100805.31;;;6.42;100.00
55675;BME280;41562;44.330;23.802;2024-03-08T12:53:45;100802.56;;;6.37;100.00
55675;BME280;41562;44.330;23.802;2024-03-08T12:56:14;100807.97;;;6.30;100.00